Bellevue, TX (76228)

11:40 AM CDT on July 25, 2014 (GMT -0500)
Post Oak (KTXBOWIE7) Elev 1014 ft | 33.44 °N, 98.20 °W | Change Station
Active Advisory: Heat Advisory

Current weather conditions updated 2 seconds ago

Clear
Clear
91.8 °F
Feels Like 99 °F
N
3.0
Wind Variable Wind from SSE
Gusts 10.0 mph

Today is forecast to be Warmer than yesterday.

Today
High -- | Low -- °F
--% Chance of Precip.
Yesterday
High -- | Low -- °F
Precip. -- in
6:40 AM 8:37 PM
Waning Crescent, 1% visible
Pressure 30.03 in
Visibility 10.0 miles
Clouds Clear
Heat Index 99 °F
Dew Point 71 °F
Humidity 51%
Rainfall 0.00 in
Snow Depth Not available.
UV 9 out of 12
Pollen 5.30 out of 12
Air Quality Not available.
Flu Activity Not available.
METAR K0F2 251615Z AUTO 19008KT 10SM CLR 31/22 A3003 RMK AO2 T03100218

More Conditions Fewer Conditions

Pressure 30.03 in
Visibility 10.0 miles
Clouds Clear
Heat Index 99 °F
Dew Point 71 °F
Humidity 51%
Rainfall 0.00 in
Snow Depth Not available.
UV 9 out of 12
Pollen 5.30 out of 12
Air Quality Not available.
Flu Activity Not available.
METAR K0F2 251615Z AUTO 19008KT 10SM CLR 31/22 A3003 RMK AO2 T03100218

More Conditions Fewer Conditions

10-Day Weather Forecast

Almanac

Astronomy

Jul. 25, 2014 Rise Set
Actual Time 6:40 AM CDT 8:37 PM CDT
Civil Twilight 6:12 AM CDT 9:05 PM CDT
Nautical Twilight 5:38 AM CDT 9:39 PM CDT
Astronomical Twilight 5:02 AM CDT 10:14 PM CDT
Moon 5:38 AM CDT 7:38 PM CDT
Length of Visible Light 14h 53m
Length of Day
13h 57m
Tomorrow will be 1m 23s shorter.
Waning Crescent, 1% of the Moon is Illuminated
Today
Waning Crescent
Jul 26
New
Aug 3
First Quarter
Aug 10
Full
Aug 17
Last Quarter

Today's Extremes

State Highs State Lows

Community

WunderPhotos

Upload Photos

1,737,363 photos uploaded!

Nearby

Snow Depth

Station Depth Elevation
No new snow has been reported.

Earthquake Activity

City Distance Mag. Time & Date
Spencer, Oklahoma 144 miles 2.7 4:56 PM CDT
2014-07-18
Minimum magnitude displayed is 2.5.

Coastal Water Temperatures

Place Temperature
No Stations Reporting

Nearby Weather Stations

Station Location Temp. Heat Index Dew Point Humidity Wind Precip. Elev Updated Type
Post Oak, Bowie, TX 91.8 °F 99 °F 71 °F 51% SSE  at  3.0 mph 0.00 in / hr 1014 ft 11:40 AM CDT Rapid Fire
Henrietta, Henrietta, TX 90.4 °F 97 °F 72 °F 54% SW  at  2.0 mph 0.00 in / hr 930 ft 10:39 AM MDT Normal
MesoWest STNBRG , Ringgold, TX 78 °F 76 °F - - North  at  - 0.00 in / hr 883 ft 7:55 AM CDT MADIS
SW Montague Co., Bowie, TX 90.7 °F 97 °F 71 °F 52% SSE  at  0.4 mph 0.00 in / hr 1037 ft 11:40 AM CDT Rapid Fire
MesoWest CITSVS , Chico, TX 87 °F 84 °F - - North  at  - 0.00 in / hr 972 ft 10:30 AM CDT MADIS
APRSWXNET Montague TX U, Montague, TX 87 °F 95 °F 74 °F 65% SSW  at  2 mph 0.00 in / hr 1154 ft 10:43 AM CDT MADIS

Show More Stations Show Fewer Stations